Time;durP1;ratioP1;P1;durP2;ratioP2;P2;SDS_P1;SDS_P2;PMS_P1;PMS_P2;Temp;Humidity;BMP_temperature;BMP_pressure;BME280_temperature;BME280_humidity;BME280_pressure;Samples;Min_cycle;Max_cycle;Signal;HPM_P1;HPM_P2
2024/03/22 00:00:00;;;;;;;;;;;;;;;7.35;100.00;100711.53;5012876;28;19922;-78
2024/03/22 00:02:29;;;;;;;;;;;;;;;7.26;100.00;100714.47;5012818;28;19925;-77
2024/03/22 00:04:55;;;;;;;;;;;;;;;7.20;100.00;100703.88;5012708;28;19974;-78
2024/03/22 00:07:21;;;;;;;;;;;;;;;7.08;100.00;100696.38;5012837;28;19956;-77
2024/03/22 00:09:46;;;;;;;;;;;;;;;6.96;100.00;100700.84;5012943;28;19917;-77
2024/03/22 00:12:11;;;;;;;;;;;;;;;6.77;100.00;100699.81;5013643;28;19917;-76
2024/03/22 00:14:37;;;;;;;;;;;;;;;6.66;100.00;100702.59;5013001;28;19917;-77
2024/03/22 00:17:03;;;;;;;;;;;;;;;6.32;100.00;100701.53;5012621;28;20291;-77
2024/03/22 00:19:29;;;;;;;;;;;;;;;6.17;100.00;100701.53;5012659;28;19921;-79
2024/03/22 00:21:54;;;;;;;;;;;;;;;6.25;100.00;100699.41;5012804;28;20405;-78
2024/03/22 00:24:19;;;;;;;;;;;;;;;6.12;100.00;100703.81;5012602;28;20461;-80
2024/03/22 00:26:45;;;;;;;;;;;;;;;6.19;100.00;100697.38;5011027;28;20455;-78
2024/03/22 00:29:10;;;;;;;;;;;;;;;6.33;100.00;100698.19;5012456;28;19948;-79
2024/03/22 00:31:35;;;;;;;;;;;;;;;6.40;100.00;100699.41;5011897;28;19956;-78
2024/03/22 00:34:02;;;;;;;;;;;;;;;6.42;100.00;100705.53;5012249;28;20056;-79
2024/03/22 00:36:27;;;;;;;;;;;;;;;6.48;100.00;100704.19;5012388;28;20492;-79
2024/03/22 00:38:53;;;;;;;;;;;;;;;6.66;100.00;100703.47;5003602;28;19921;-79
2024/03/22 00:41:18;;;;;;;;;;;;;;;6.80;100.00;100706.78;5010788;28;19988;-78
2024/03/22 00:43:45;;;;;;;;;;;;;;;6.60;100.00;100708.25;5012262;28;19930;-78
2024/03/22 00:46:10;;;;;;;;;;;;;;;6.54;100.00;100697.63;5012738;28;19929;-79
2024/03/22 00:48:36;;;;;;;;;;;;;;;6.62;100.00;100709.22;5012255;28;20029;-79
2024/03/22 00:51:01;;;;;;;;;;;;;;;6.64;100.00;100718.78;5013073;28;19922;-79
2024/03/22 00:53:26;;;;;;;;;;;;;;;6.68;100.00;100717.28;5012049;28;19972;-79
2024/03/22 00:55:52;;;;;;;;;;;;;;;6.68;100.00;100717.28;5012543;28;20331;-79
2024/03/22 00:58:18;;;;;;;;;;;;;;;6.74;100.00;100717.63;5012477;28;20287;-79
2024/03/22 01:00:44;;;;;;;;;;;;;;;6.70;100.00;100709.66;5015730;28;19968;-78
2024/03/22 01:03:09;;;;;;;;;;;;;;;6.76;100.00;100712.56;5011908;28;19964;-79
2024/03/22 01:05:35;;;;;;;;;;;;;;;6.66;100.00;100717.97;5010538;28;19925;-78
2024/03/22 01:08:02;;;;;;;;;;;;;;;6.55;100.00;100717.38;5011087;28;20323;-78
2024/03/22 01:10:28;;;;;;;;;;;;;;;6.44;100.00;100719.31;5011709;28;19925;-79
2024/03/22 01:12:53;;;;;;;;;;;;;;;6.22;100.00;100715.50;5011744;28;20374;-79
2024/03/22 01:15:18;;;;;;;;;;;;;;;6.09;100.00;100719.03;5012512;28;19921;-79
2024/03/22 01:17:44;;;;;;;;;;;;;;;5.95;100.00;100714.72;5011424;28;19979;-79
2024/03/22 01:20:10;;;;;;;;;;;;;;;5.73;100.00;100715.13;5011095;28;20001;-80
2024/03/22 01:22:35;;;;;;;;;;;;;;;5.61;100.00;100711.03;5010954;28;19960;-79
2024/03/22 01:25:01;;;;;;;;;;;;;;;5.62;100.00;100712.81;5012243;28;19924;-78
2024/03/22 01:27:27;;;;;;;;;;;;;;;5.74;100.00;100707.50;5011610;28;19921;-79
2024/03/22 01:29:52;;;;;;;;;;;;;;;5.70;100.00;100713.25;5012076;28;19914;-79
2024/03/22 01:32:17;;;;;;;;;;;;;;;5.52;100.00;100707.91;5012341;28;20358;-80
2024/03/22 01:34:43;;;;;;;;;;;;;;;5.55;100.00;100704.66;5011622;28;20415;-80
2024/03/22 01:37:09;;;;;;;;;;;;;;;5.16;100.00;100699.75;5011427;28;20387;-80
2024/03/22 01:39:34;;;;;;;;;;;;;;;5.25;100.00;100699.41;5012089;28;20381;-80
2024/03/22 01:41:59;;;;;;;;;;;;;;;4.88;100.00;100697.97;5011564;28;19984;-81
2024/03/22 01:44:28;;;;;;;;;;;;;;;4.84;100.00;100701.13;5012071;28;19984;-80
2024/03/22 01:46:54;;;;;;;;;;;;;;;4.81;100.00;100700.94;5012223;28;19921;-81
2024/03/22 01:49:19;;;;;;;;;;;;;;;4.74;100.00;100699.66;5011375;28;20032;-81
2024/03/22 01:51:44;;;;;;;;;;;;;;;4.77;100.00;100699.88;5011584;28;20363;-80
2024/03/22 01:54:10;;;;;;;;;;;;;;;4.87;100.00;100701.31;5012037;28;19917;-81
2024/03/22 01:56:39;;;;;;;;;;;;;;;4.96;100.00;100703.56;5010824;28;20654;-81
2024/03/22 01:59:05;;;;;;;;;;;;;;;5.12;100.00;100703.78;5011226;28;19921;-80
2024/03/22 02:01:30;;;;;;;;;;;;;;;5.29;100.00;100704.81;5011027;28;19928;-77
2024/03/22 02:03:56;;;;;;;;;;;;;;;5.40;100.00;100702.91;5011276;28;19920;-76
2024/03/22 02:06:21;;;;;;;;;;;;;;;5.53;100.00;100703.66;5010896;28;19926;-77
2024/03/22 02:08:47;;;;;;;;;;;;;;;5.65;100.00;100705.28;5006407;28;19921;-77
2024/03/22 02:11:13;;;;;;;;;;;;;;;5.51;100.00;100703.59;5010857;28;19944;-77
2024/03/22 02:13:38;;;;;;;;;;;;;;;5.39;100.00;100707.94;5010500;28;19918;-77
2024/03/22 02:16:04;;;;;;;;;;;;;;;5.51;100.00;100696.78;5011014;28;19925;-77
2024/03/22 02:18:29;;;;;;;;;;;;;;;5.63;100.00;100700.88;5010424;28;19921;-77
2024/03/22 02:20:56;;;;;;;;;;;;;;;5.49;100.00;100700.03;5010585;28;19932;-77
2024/03/22 02:23:23;;;;;;;;;;;;;;;5.50;100.00;100712.91;5010920;28;19921;-77
2024/03/22 02:25:49;;;;;;;;;;;;;;;5.61;100.00;100718.72;5010034;28;19925;-77
2024/03/22 02:28:14;;;;;;;;;;;;;;;5.59;100.00;100734.78;5010398;28;19929;-76
2024/03/22 02:30:39;;;;;;;;;;;;;;;5.50;100.00;100733.41;5010585;28;19922;-77
2024/03/22 02:33:05;;;;;;;;;;;;;;;5.53;100.00;100729.28;5010763;28;19929;-78
2024/03/22 02:35:30;;;;;;;;;;;;;;;5.58;100.00;100733.00;5010851;28;20372;-80
2024/03/22 02:37:58;;;;;;;;;;;;;;;5.47;100.00;100734.88;5010857;28;20399;-82
2024/03/22 02:40:23;;;;;;;;;;;;;;;5.60;100.00;100736.56;5006832;28;19917;-83
2024/03/22 02:42:48;;;;;;;;;;;;;;;5.72;100.00;100739.88;5011552;28;20012;-82
2024/03/22 02:45:14;;;;;;;;;;;;;;;5.65;100.00;100746.28;5010496;28;19984;-82
2024/03/22 02:47:39;;;;;;;;;;;;;;;5.76;100.00;100758.88;5011694;28;19933;-81
2024/03/22 02:50:05;;;;;;;;;;;;;;;5.85;100.00;100746.59;5011448;28;19917;-82
2024/03/22 02:52:30;;;;;;;;;;;;;;;5.89;100.00;100751.09;5011473;28;19938;-82
2024/03/22 02:54:55;;;;;;;;;;;;;;;5.83;100.00;100748.19;5011117;28;19925;-82
2024/03/22 02:57:21;;;;;;;;;;;;;;;5.83;100.00;100750.75;5009164;28;20016;-81
2024/03/22 02:59:46;;;;;;;;;;;;;;;5.63;100.00;100752.09;5011434;28;19928;-81
2024/03/22 03:02:13;;;;;;;;;;;;;;;5.65;100.00;100751.38;5010832;28;19925;-82
2024/03/22 03:04:38;;;;;;;;;;;;;;;5.21;100.00;100746.97;5011359;28;19969;-82
2024/03/22 03:07:03;;;;;;;;;;;;;;;4.69;100.00;100745.41;5009850;28;20341;-82
2024/03/22 03:09:29;;;;;;;;;;;;;;;4.68;100.00;100745.31;5009883;28;19921;-81
2024/03/22 03:11:54;;;;;;;;;;;;;;;4.70;100.00;100756.53;5010777;28;19940;-81
2024/03/22 03:14:19;;;;;;;;;;;;;;;4.61;100.00;100771.25;5010807;28;19922;-82
2024/03/22 03:16:45;;;;;;;;;;;;;;;4.45;100.00;100770.25;5011112;28;19928;-82
2024/03/22 03:19:11;;;;;;;;;;;;;;;3.93;100.00;100776.97;5011250;28;19948;-80
2024/03/22 03:21:36;;;;;;;;;;;;;;;3.63;100.00;100781.72;5009172;28;20306;-79
2024/03/22 03:24:01;;;;;;;;;;;;;;;3.40;100.00;100789.53;5010122;28;19921;-80
2024/03/22 03:26:31;;;;;;;;;;;;;;;3.38;100.00;100783.44;5010862;28;19965;-81
2024/03/22 03:28:56;;;;;;;;;;;;;;;3.43;100.00;100782.84;4987925;28;19934;-80
2024/03/22 03:31:22;;;;;;;;;;;;;;;3.56;100.00;100788.97;4972107;28;19922;-81
2024/03/22 03:33:48;;;;;;;;;;;;;;;3.71;100.00;100781.47;4991722;28;19929;-81
2024/03/22 03:36:13;;;;;;;;;;;;;;;3.76;100.00;100783.47;4990470;28;19980;-81
2024/03/22 03:38:38;;;;;;;;;;;;;;;3.68;100.00;100783.81;4990800;28;19922;-80
2024/03/22 03:41:04;;;;;;;;;;;;;;;3.78;100.00;100797.22;4988727;28;20268;-81
2024/03/22 03:43:29;;;;;;;;;;;;;;;3.80;100.00;100801.66;4991280;28;19973;-78
2024/03/22 03:45:55;;;;;;;;;;;;;;;3.81;100.00;100810.19;4989776;28;19973;-78
2024/03/22 03:48:22;;;;;;;;;;;;;;;3.62;100.00;100798.69;4974572;28;19957;-78
2024/03/22 03:51:02;;;;;;;;;;;;;;;3.61;100.00;100808.81;4991241;28;19921;-77
2024/03/22 03:53:29;;;;;;;;;;;;;;;3.26;100.00;100815.72;4990987;28;19933;-77
2024/03/22 03:55:55;;;;;;;;;;;;;;;3.14;100.00;100808.09;4990794;28;19933;-77
2024/03/22 03:58:20;;;;;;;;;;;;;;;3.15;100.00;100811.53;4991287;28;20300;-77
2024/03/22 04:00:46;;;;;;;;;;;;;;;3.18;100.00;100816.88;4991330;28;20431;-77
2024/03/22 04:03:11;;;;;;;;;;;;;;;3.05;100.00;100823.63;4990804;28;20350;-77
2024/03/22 04:05:37;;;;;;;;;;;;;;;2.98;100.00;100831.59;4990897;28;19969;-78
2024/03/22 04:08:02;;;;;;;;;;;;;;;2.92;100.00;100834.56;4990766;28;19925;-78
2024/03/22 04:10:28;;;;;;;;;;;;;;;3.08;100.00;100834.03;4991167;28;20000;-78
2024/03/22 04:12:54;;;;;;;;;;;;;;;3.32;100.00;100840.81;4990912;28;19933;-77
2024/03/22 04:15:20;;;;;;;;;;;;;;;3.45;100.00;100840.91;4990695;28;19957;-77
2024/03/22 04:17:46;;;;;;;;;;;;;;;3.32;100.00;100853.56;4990346;28;19922;-78
2024/03/22 04:20:12;;;;;;;;;;;;;;;3.05;100.00;100851.69;5010065;28;20438;-77
2024/03/22 04:22:51;;;;;;;;;;;;;;;3.04;100.00;100852.44;5012882;28;19929;-77
2024/03/22 04:25:19;;;;;;;;;;;;;;;3.14;100.00;100850.56;5009349;28;19922;-80
2024/03/22 04:27:51;;;;;;;;;;;;;;;3.14;100.00;100860.75;5009414;28;19921;-76
2024/03/22 04:30:17;;;;;;;;;;;;;;;2.99;100.00;100860.53;5010896;28;19929;-85
2024/03/22 04:32:45;;;;;;;;;;;;;;;2.94;100.00;100861.84;5011890;28;20351;-86
2024/03/22 04:35:11;;;;;;;;;;;;;;;2.91;100.00;100857.41;5012839;28;19925;-86
2024/03/22 04:37:37;;;;;;;;;;;;;;;2.85;100.00;100852.75;5015268;28;20086;-85
2024/03/22 04:40:03;;;;;;;;;;;;;;;2.59;100.00;100859.34;5014988;28;19921;-86
2024/03/22 04:42:29;;;;;;;;;;;;;;;2.58;100.00;100866.91;5015004;28;20292;-85
2024/03/22 04:44:54;;;;;;;;;;;;;;;2.74;100.00;100871.44;5016056;28;19924;-86
2024/03/22 04:47:20;;;;;;;;;;;;;;;2.94;100.00;100872.06;5013999;28;20015;-84
2024/03/22 04:49:45;;;;;;;;;;;;;;;2.81;100.00;100873.69;5014660;28;19938;-83
2024/03/22 04:52:11;;;;;;;;;;;;;;;2.62;100.00;100881.63;5015644;28;19929;-84
2024/03/22 04:54:36;;;;;;;;;;;;;;;2.62;100.00;100894.38;5015570;28;19968;-83
2024/03/22 04:57:02;;;;;;;;;;;;;;;2.63;100.00;100897.81;5012421;28;19925;-84
2024/03/22 04:59:27;;;;;;;;;;;;;;;2.80;100.00;100894.84;5014582;28;19955;-85
2024/03/22 05:01:53;;;;;;;;;;;;;;;2.96;100.00;100896.91;5015621;28;19917;-86
2024/03/22 05:04:18;;;;;;;;;;;;;;;3.17;100.00;100891.63;5015507;28;19918;-86
2024/03/22 05:06:44;;;;;;;;;;;;;;;3.36;100.00;100902.38;5015893;28;20016;-87
2024/03/22 05:09:11;;;;;;;;;;;;;;;3.56;100.00;100898.75;5013373;28;19921;-88
2024/03/22 05:11:36;;;;;;;;;;;;;;;3.59;100.00;100903.16;5013593;28;19979;-87
2024/03/22 05:14:03;;;;;;;;;;;;;;;3.73;100.00;100907.59;5011957;28;19921;-86
2024/03/22 05:16:30;;;;;;;;;;;;;;;3.91;100.00;100913.91;5014290;28;19945;-86
2024/03/22 05:18:55;;;;;;;;;;;;;;;4.15;100.00;100909.63;5001132;28;19925;-87
2024/03/22 05:21:22;;;;;;;;;;;;;;;4.40;100.00;100901.09;4982696;28;19926;-86
2024/03/22 05:23:47;;;;;;;;;;;;;;;4.55;100.00;100902.16;4984522;28;19961;-86
2024/03/22 05:26:12;;;;;;;;;;;;;;;4.42;100.00;100908.09;4999360;28;20051;-84
2024/03/22 05:28:38;;;;;;;;;;;;;;;3.89;100.00;100914.69;4980722;28;19933;-84
2024/03/22 05:31:04;;;;;;;;;;;;;;;3.87;100.00;100926.44;4999435;28;19922;-85
2024/03/22 05:33:30;;;;;;;;;;;;;;;3.66;100.00;100930.91;4998662;28;19922;-84
2024/03/22 05:35:55;;;;;;;;;;;;;;;3.42;100.00;100935.13;5000966;28;20343;-84
2024/03/22 05:38:21;;;;;;;;;;;;;;;3.55;100.00;100932.69;4998360;28;19918;-86
2024/03/22 05:40:47;;;;;;;;;;;;;;;3.85;100.00;100934.78;4971214;28;19922;-85
2024/03/22 05:43:13;;;;;;;;;;;;;;;3.88;100.00;100924.78;4993854;28;20067;-85
2024/03/22 05:45:38;;;;;;;;;;;;;;;3.86;100.00;100927.25;4993664;28;19937;-85
2024/03/22 05:48:05;;;;;;;;;;;;;;;3.82;100.00;100925.22;4997481;28;19918;-74
2024/03/22 05:50:30;;;;;;;;;;;;;;;4.07;100.00;100933.75;5006647;28;19925;-82
2024/03/22 05:52:56;;;;;;;;;;;;;;;4.42;100.00;100941.31;5011615;28;19972;-83
2024/03/22 05:55:22;;;;;;;;;;;;;;;4.53;100.00;100942.06;5011515;28;20315;-83
2024/03/22 05:57:51;;;;;;;;;;;;;;;4.56;100.00;100947.41;5011165;28;19921;-82
2024/03/22 06:00:16;;;;;;;;;;;;;;;4.68;100.00;100945.66;5011770;28;20296;-83
2024/03/22 06:02:41;;;;;;;;;;;;;;;4.95;100.00;100952.56;4989454;28;19926;-83
2024/03/22 06:05:07;;;;;;;;;;;;;;;5.14;100.00;100944.44;4989756;28;19952;-84
2024/03/22 06:07:40;;;;;;;;;;;;;;;5.21;100.00;100953.41;4989195;28;19965;-80
2024/03/22 06:10:05;;;;;;;;;;;;;;;5.31;100.00;100955.81;4989530;28;19929;-81
2024/03/22 06:12:32;;;;;;;;;;;;;;;5.40;100.00;100960.66;4984022;28;19926;-91
2024/03/22 06:14:57;;;;;;;;;;;;;;;5.60;100.00;100967.94;4990550;28;19924;-92
2024/03/22 06:17:23;;;;;;;;;;;;;;;5.77;100.00;100968.13;4990020;28;20004;-89
2024/03/22 06:19:48;;;;;;;;;;;;;;;5.90;99.16;100962.13;4974109;28;20016;-87
2024/03/22 06:22:14;;;;;;;;;;;;;;;5.81;99.72;100960.75;4989432;28;20000;-87
2024/03/22 06:24:40;;;;;;;;;;;;;;;5.88;100.00;100953.47;4973211;28;20343;-89
2024/03/22 06:27:07;;;;;;;;;;;;;;;5.90;100.00;100952.75;4989142;28;19914;-89
2024/03/22 06:29:33;;;;;;;;;;;;;;;6.07;99.37;100955.53;4989211;28;19973;-88
2024/03/22 06:31:59;;;;;;;;;;;;;;;6.09;98.72;100962.56;4989514;28;19949;-90
2024/03/22 06:34:24;;;;;;;;;;;;;;;6.09;98.84;100966.78;4972961;28;20049;-85
2024/03/22 06:36:50;;;;;;;;;;;;;;;5.97;98.72;100969.44;4972961;28;19921;-85
2024/03/22 06:39:16;;;;;;;;;;;;;;;5.95;99.35;100971.88;4992495;28;19922;-90
2024/03/22 06:41:42;;;;;;;;;;;;;;;6.19;97.19;100971.69;5010413;28;20299;-91
2024/03/22 06:44:09;;;;;;;;;;;;;;;6.19;95.89;100976.81;5009813;28;19925;-90
2024/03/22 06:46:34;;;;;;;;;;;;;;;6.41;94.39;100975.59;5011075;28;19921;-88
2024/03/22 06:48:59;;;;;;;;;;;;;;;6.69;92.66;100972.16;5011473;28;19921;-90
2024/03/22 06:51:25;;;;;;;;;;;;;;;6.87;92.53;100967.25;5009866;28;20303;-90
2024/03/22 06:53:51;;;;;;;;;;;;;;;5.86;91.72;100822.69;5010924;28;19918;-88
2024/03/22 06:56:18;;;;;;;;;;;;;;;6.68;91.88;100965.25;5010318;28;19925;-89
2024/03/22 06:58:44;;;;;;;;;;;;;;;6.70;90.47;100961.09;5009911;28;19929;-90
2024/03/22 07:01:09;;;;;;;;;;;;;;;6.80;91.69;100965.97;5010424;28;19921;-89
2024/03/22 07:03:35;;;;;;;;;;;;;;;6.94;92.11;100977.06;5008491;28;20815;-91
2024/03/22 07:06:01;;;;;;;;;;;;;;;6.88;86.27;100984.41;4987851;28;19925;-89
2024/03/22 07:08:27;;;;;;;;;;;;;;;7.07;85.15;100983.84;5013114;28;19921;-90
2024/03/22 07:10:54;;;;;;;;;;;;;;;7.33;82.94;100979.31;4996397;28;20534;-91
2024/03/22 07:13:20;;;;;;;;;;;;;;;7.67;79.88;100983.88;4996226;28;20341;-90
2024/03/22 07:15:47;;;;;;;;;;;;;;;7.84;81.22;100977.09;5001526;28;19928;-90
2024/03/22 07:18:12;;;;;;;;;;;;;;;8.03;81.64;100990.16;4991305;28;20380;-90
2024/03/22 07:20:38;;;;;;;;;;;;;;;8.21;80.29;100985.19;4987584;28;19928;-90
2024/03/22 07:23:04;;;;;;;;;;;;;;;8.36;78.11;100994.50;4978079;28;19925;-90
2024/03/22 07:25:30;;;;;;;;;;;;;;;8.41;75.36;100996.53;5003035;28;19921;-89
2024/03/22 07:27:56;;;;;;;;;;;;;;;8.56;72.95;100991.38;4994794;28;20362;-89
2024/03/22 07:30:21;;;;;;;;;;;;;;;8.57;74.29;100979.38;5003750;28;20004;-88
2024/03/22 07:32:47;;;;;;;;;;;;;;;8.42;74.83;100988.03;4994267;28;19921;-89
2024/03/22 07:35:12;;;;;;;;;;;;;;;8.31;74.08;100983.09;4985863;28;20020;-88
2024/03/22 07:37:38;;;;;;;;;;;;;;;8.05;74.15;100983.44;4986778;28;19921;-88
2024/03/22 07:40:05;;;;;;;;;;;;;;;8.28;76.91;100981.25;4985149;28;20230;-88
2024/03/22 07:42:32;;;;;;;;;;;;;;;8.33;77.53;100984.94;5001801;28;20487;-90
2024/03/22 07:44:57;;;;;;;;;;;;;;;8.39;71.86;100989.53;4984706;28;20000;-86
2024/03/22 07:47:22;;;;;;;;;;;;;;;8.33;76.90;100984.06;5007526;28;20009;-88
2024/03/22 07:49:47;;;;;;;;;;;;;;;8.41;74.96;100988.81;5013796;28;19971;-87
2024/03/22 07:52:14;;;;;;;;;;;;;;;8.31;72.98;100988.22;5012877;28;19921;-87
2024/03/22 07:54:39;;;;;;;;;;;;;;;8.38;75.09;100980.94;5012278;28;20575;-86
2024/03/22 07:57:05;;;;;;;;;;;;;;;8.51;72.36;100986.75;5013779;28;19921;-89
2024/03/22 07:59:30;;;;;;;;;;;;;;;8.58;70.53;100982.06;5014061;28;20020;-90
2024/03/22 08:01:57;;;;;;;;;;;;;;;8.85;67.13;100981.72;5009895;28;19995;-90
2024/03/22 08:04:23;;;;;;;;;;;;;;;9.06;69.04;100984.53;5013485;28;20323;-90
2024/03/22 08:06:50;;;;;;;;;;;;;;;9.16;66.09;100979.81;4990860;28;19932;-87
2024/03/22 08:09:16;;;;;;;;;;;;;;;9.10;68.93;100971.78;4991056;28;19965;-83
2024/03/22 08:11:41;;;;;;;;;;;;;;;9.12;69.60;100977.91;4991089;28;19969;-83
2024/03/22 08:14:07;;;;;;;;;;;;;;;9.20;67.78;100985.22;4990873;28;19975;-83
2024/03/22 08:16:32;;;;;;;;;;;;;;;9.34;64.76;100988.50;4982817;28;19918;-86
2024/03/22 08:18:57;;;;;;;;;;;;;;;9.46;64.36;100985.66;4990748;28;19922;-86
2024/03/22 08:21:24;;;;;;;;;;;;;;;9.61;66.47;100977.78;4991104;28;19955;-85
2024/03/22 08:23:50;;;;;;;;;;;;;;;9.55;65.96;100977.50;4991141;28;20015;-85
2024/03/22 08:26:16;;;;;;;;;;;;;;;9.55;69.17;100978.34;4974988;28;19925;-83
2024/03/22 08:28:41;;;;;;;;;;;;;;;9.28;68.18;100979.56;4990723;28;19922;-82
2024/03/22 08:31:06;;;;;;;;;;;;;;;9.05;68.94;100981.88;4989991;28;20458;-85
2024/03/22 08:33:32;;;;;;;;;;;;;;;9.33;67.76;100976.44;4990186;28;20367;-85
2024/03/22 08:35:57;;;;;;;;;;;;;;;9.47;66.54;100979.69;4990518;28;20363;-84
2024/03/22 08:38:24;;;;;;;;;;;;;;;9.43;62.23;100979.47;5000836;28;20379;-83
2024/03/22 08:40:50;;;;;;;;;;;;;;;9.56;63.65;100979.25;5011396;28;19922;-84
2024/03/22 08:43:15;;;;;;;;;;;;;;;9.63;65.41;100972.69;5011181;28;20339;-84
2024/03/22 08:45:40;;;;;;;;;;;;;;;9.29;68.41;100964.19;5013501;28;19922;-88
2024/03/22 08:48:06;;;;;;;;;;;;;;;9.38;66.67;100964.66;5010888;28;20056;-85
2024/03/22 08:50:33;;;;;;;;;;;;;;;9.52;65.82;100970.50;5012773;28;20016;-86
2024/03/22 08:52:58;;;;;;;;;;;;;;;9.57;65.63;100964.66;5012499;28;20481;-87
2024/03/22 08:55:24;;;;;;;;;;;;;;;9.53;63.05;100972.28;5012447;28;19921;-86
2024/03/22 08:57:50;;;;;;;;;;;;;;;9.79;62.45;100971.75;5012532;28;19933;-84
2024/03/22 09:00:15;;;;;;;;;;;;;;;10.07;60.46;100968.81;5007742;28;19960;-83
2024/03/22 09:02:40;;;;;;;;;;;;;;;10.31;62.15;100966.47;5009460;28;19972;-86
2024/03/22 09:05:06;;;;;;;;;;;;;;;10.32;61.11;100965.66;4993647;28;19948;-87
2024/03/22 09:07:31;;;;;;;;;;;;;;;10.32;61.78;100957.91;5009483;28;19924;-86
2024/03/22 09:09:57;;;;;;;;;;;;;;;10.43;58.98;100958.44;4993212;28;19971;-88
2024/03/22 09:12:22;;;;;;;;;;;;;;;10.63;60.60;100955.84;4993025;28;19914;-87
2024/03/22 09:14:47;;;;;;;;;;;;;;;10.86;57.91;100950.84;5009274;28;19932;-86
2024/03/22 09:17:13;;;;;;;;;;;;;;;10.94;55.36;100945.19;4993906;28;19909;-87
2024/03/22 09:19:38;;;;;;;;;;;;;;;11.14;56.78;100937.38;5009648;28;19921;-85
2024/03/22 09:22:03;;;;;;;;;;;;;;;11.34;56.44;100935.66;5009583;28;19928;-87
2024/03/22 09:24:29;;;;;;;;;;;;;;;11.52;55.17;100934.63;5005272;28;19921;-85
2024/03/22 09:26:55;;;;;;;;;;;;;;;11.61;52.41;100928.13;4993614;28;19917;-86
2024/03/22 09:29:20;;;;;;;;;;;;;;;11.80;57.46;100926.25;5009161;28;19921;-86
2024/03/22 09:31:45;;;;;;;;;;;;;;;11.87;52.60;100929.97;5010003;28;20422;-80
2024/03/22 09:34:12;;;;;;;;;;;;;;;12.04;53.16;100926.38;5011867;28;20486;-85
2024/03/22 09:36:38;;;;;;;;;;;;;;;12.08;54.11;100933.41;4989500;28;20048;-85
2024/03/22 09:39:03;;;;;;;;;;;;;;;12.10;48.20;100912.75;4988966;28;19969;-79
2024/03/22 09:41:31;;;;;;;;;;;;;;;12.24;49.84;100914.19;4989236;28;20435;-80
2024/03/22 09:43:58;;;;;;;;;;;;;;;12.35;52.46;100909.41;4989590;28;21114;-81
2024/03/22 09:46:24;;;;;;;;;;;;;;;12.39;53.19;100910.41;4987970;28;19926;-82
2024/03/22 09:48:50;;;;;;;;;;;;;;;12.56;54.52;100896.34;4989216;28;19922;-82
2024/03/22 09:51:16;;;;;;;;;;;;;;;12.72;53.04;100905.56;4989279;28;19918;-84
2024/03/22 09:53:43;;;;;;;;;;;;;;;12.86;50.09;100897.34;4989199;28;20518;-81
2024/03/22 09:56:11;;;;;;;;;;;;;;;13.03;51.39;100891.03;4988600;28;20004;-82
2024/03/22 09:58:38;;;;;;;;;;;;;;;12.62;48.41;100893.97;4989045;28;19996;-83
2024/03/22 10:01:03;;;;;;;;;;;;;;;12.68;48.01;100889.84;4989463;28;20244;-79
2024/03/22 10:03:36;;;;;;;;;;;;;;;12.86;50.36;100892.16;4995466;28;19917;-83
2024/03/22 10:06:01;;;;;;;;;;;;;;;13.14;47.98;100878.44;4989748;28;19992;-83
2024/03/22 10:08:27;;;;;;;;;;;;;;;13.35;50.19;100891.22;4988396;28;20396;-82
2024/03/22 10:10:52;;;;;;;;;;;;;;;13.48;47.02;100884.75;4989434;28;19928;-83
2024/03/22 10:13:17;;;;;;;;;;;;;;;13.63;48.08;100876.56;4993948;28;19924;-85
2024/03/22 10:15:43;;;;;;;;;;;;;;;13.53;49.08;100878.00;5026621;28;19917;-82
2024/03/22 10:18:09;;;;;;;;;;;;;;;12.94;47.16;100873.47;5015080;28;19944;-89
2024/03/22 10:20:35;;;;;;;;;;;;;;;12.42;44.95;100872.56;5019848;28;19952;-89
2024/03/22 10:23:00;;;;;;;;;;;;;;;12.39;46.48;100872.44;5019330;28;20333;-81
2024/03/22 10:25:27;;;;;;;;;;;;;;;12.87;49.00;100866.34;5016605;28;20008;-90
2024/03/22 10:27:53;;;;;;;;;;;;;;;13.10;45.30;100861.03;5007806;28;19925;-92
2024/03/22 10:30:19;;;;;;;;;;;;;;;13.34;43.60;100865.25;5016197;28;19929;-87
2024/03/22 10:32:44;;;;;;;;;;;;;;;13.70;44.03;100860.34;5005298;28;19918;-86
2024/03/22 10:35:13;;;;;;;;;;;;;;;13.86;45.27;100848.72;5006914;28;20064;-82
2024/03/22 10:37:39;;;;;;;;;;;;;;;13.89;44.95;100845.34;5010835;28;19922;-75
2024/03/22 10:40:08;;;;;;;;;;;;;;;13.84;44.52;100846.91;5010602;28;19952;-75
2024/03/22 10:42:37;;;;;;;;;;;;;;;13.84;47.52;100845.19;5012956;28;19921;-82
2024/03/22 10:45:05;;;;;;;;;;;;;;;14.08;43.60;100837.25;5016556;28;19941;-83
2024/03/22 10:47:31;;;;;;;;;;;;;;;14.24;43.36;100832.47;5015865;28;19928;-87
2024/03/22 10:50:05;;;;;;;;;;;;;;;14.45;44.92;100828.72;5016089;28;19922;-86
2024/03/22 10:52:33;;;;;;;;;;;;;;;14.65;41.03;100832.75;5032741;28;20016;-85
2024/03/22 10:55:00;;;;;;;;;;;;;;;14.47;38.77;100827.06;5017227;28;19925;-84
2024/03/22 10:57:26;;;;;;;;;;;;;;;14.58;40.97;100817.81;5015444;28;20023;-86
2024/03/22 10:59:54;;;;;;;;;;;;;;;14.89;43.02;100810.81;5012279;28;19928;-83
2024/03/22 11:02:23;;;;;;;;;;;;;;;14.90;40.25;100817.78;5013471;28;20064;-84
2024/03/22 11:04:57;;;;;;;;;;;;;;;15.04;42.71;100813.81;5006020;28;20315;-87
2024/03/22 11:07:25;;;;;;;;;;;;;;;15.21;39.31;100810.72;4924588;29;19975;-84
2024/03/22 11:09:55;;;;;;;;;;;;;;;15.35;36.47;100806.72;4917133;29;20402;-86
2024/03/22 11:12:21;;;;;;;;;;;;;;;15.49;36.81;100798.34;4924107;29;19959;-70
2024/03/22 11:14:47;;;;;;;;;;;;;;;15.40;39.20;100799.00;4924987;29;19933;-70
2024/03/22 11:17:13;;;;;;;;;;;;;;;15.22;41.23;100796.88;4925691;29;20325;-70
2024/03/22 11:19:40;;;;;;;;;;;;;;;15.04;39.28;100798.19;4915133;29;20457;-81
2024/03/22 11:22:08;;;;;;;;;;;;;;;15.05;40.66;100786.06;4906256;29;20386;-83
2024/03/22 11:24:33;;;;;;;;;;;;;;;14.54;39.03;100779.59;4933956;29;20055;-82
2024/03/22 11:26:59;;;;;;;;;;;;;;;14.28;43.13;100776.31;4929050;29;20630;-83
2024/03/22 11:29:24;;;;;;;;;;;;;;;14.14;43.66;100774.22;4915154;29;19923;-82
2024/03/22 11:31:51;;;;;;;;;;;;;;;14.24;41.48;100775.34;4927159;29;19927;-81
2024/03/22 11:34:17;;;;;;;;;;;;;;;14.62;41.34;100772.88;4933322;29;19923;-82
2024/03/22 11:36:42;;;;;;;;;;;;;;;15.08;41.90;100773.16;4915802;29;19923;-81
2024/03/22 11:39:08;;;;;;;;;;;;;;;15.28;38.80;100757.13;4993816;28;19921;-81
2024/03/22 11:41:34;;;;;;;;;;;;;;;15.52;37.74;100760.25;5013450;28;19932;-80
2024/03/22 11:44:00;;;;;;;;;;;;;;;15.74;36.92;100752.00;5016661;28;19981;-82
2024/03/22 11:46:29;;;;;;;;;;;;;;;15.85;36.05;100745.34;5017663;28;19921;-82
2024/03/22 11:48:55;;;;;;;;;;;;;;;15.97;34.58;100744.69;5018468;28;19926;-83
2024/03/22 11:51:23;;;;;;;;;;;;;;;15.86;34.19;100739.25;5018947;28;19921;-81
2024/03/22 11:53:49;;;;;;;;;;;;;;;15.88;33.79;100742.78;5015468;28;19918;-82
2024/03/22 11:56:17;;;;;;;;;;;;;;;16.04;35.53;100730.94;5018065;28;19917;-80
2024/03/22 11:58:42;;;;;;;;;;;;;;;16.17;37.32;100732.03;5007517;28;19942;-81
2024/03/22 12:01:08;;;;;;;;;;;;;;;15.96;36.77;100728.19;4992225;28;19918;-81
2024/03/22 12:03:44;;;;;;;;;;;;;;;;;;;;;
2024/03/22 12:06:10;;;;;;;;;;;;;;;14.98;39.65;100727.84;5005757;28;19930;-82
2024/03/22 12:08:38;;;;;;;;;;;;;;;15.17;38.51;100726.53;5013257;28;19931;-83
2024/03/22 12:11:03;;;;;;;;;;;;;;;15.33;40.65;100717.34;5021119;28;19918;-81
2024/03/22 12:13:44;;;;;;;;;;;;;;;15.27;37.99;100716.34;4995205;28;20019;-82
2024/03/22 12:16:10;;;;;;;;;;;;;;;15.69;37.18;100713.75;5011315;28;20463;-83
2024/03/22 12:18:45;;;;;;;;;;;;;;;15.40;38.19;100709.69;5015829;28;19929;-85
2024/03/22 12:21:31;;;;;;;;;;;;;;;15.02;37.86;100710.59;5005675;28;20478;-83
2024/03/22 12:23:59;;;;;;;;;;;;;;;15.16;39.70;100703.97;4994661;28;19917;-81
2024/03/22 12:29:38;;;;;;;;;;;;;;;15.61;39.55;100701.44;4941563;29;20365;-85
2024/03/22 12:32:07;;;;;;;;;;;;;;;15.92;38.88;100694.25;4935309;28;20813;-81
2024/03/22 12:34:33;;;;;;;;;;;;;;;16.01;39.96;100686.59;4925014;29;19923;-83
2024/03/22 12:37:02;;;;;;;;;;;;;;;16.11;36.88;100685.03;4898448;29;19919;-82